createdAt,value
2019-01-27T00:04:10.888Z,1.00
2019-01-27T00:09:09.228Z,0.80
2019-01-27T00:14:03.124Z,1.07
2019-01-27T00:18:55.965Z,0.90
2019-01-27T00:23:48.824Z,1.23
2019-01-27T00:28:41.640Z,1.13
2019-01-27T00:33:34.484Z,2.43
2019-01-27T00:38:27.314Z,0.90
2019-01-27T00:43:20.263Z,1.43
2019-01-27T00:48:13.348Z,2.90
2019-01-27T00:53:06.224Z,1.23
2019-01-27T00:57:59.049Z,1.87
2019-01-27T01:02:51.885Z,1.77
2019-01-27T01:07:45.116Z,0.97
2019-01-27T01:12:37.967Z,0.70
2019-01-27T01:17:30.799Z,0.70
2019-01-27T01:22:23.684Z,0.80
2019-01-27T01:27:16.830Z,0.80
2019-01-27T01:32:09.677Z,0.73
2019-01-27T01:37:02.514Z,0.90
2019-01-27T01:41:55.353Z,0.60
2019-01-27T01:46:48.199Z,1.10
2019-01-27T01:51:41.052Z,0.70
2019-01-27T01:56:33.881Z,0.60
2019-01-27T02:01:26.713Z,0.67
2019-01-27T02:06:20.617Z,0.90
2019-01-27T02:11:13.444Z,1.00
2019-01-27T02:16:08.729Z,0.90
2019-01-27T02:21:02.004Z,1.00
2019-01-27T02:25:55.130Z,1.27
2019-01-27T02:30:47.981Z,1.00
2019-01-27T02:35:40.816Z,0.77
2019-01-27T02:40:33.773Z,0.70
2019-01-27T02:45:26.596Z,0.70
2019-01-27T02:50:19.488Z,0.60
2019-01-27T02:55:12.617Z,0.60
2019-01-27T03:00:07.183Z,0.60
2019-01-27T03:05:01.975Z,0.40
2019-01-27T03:09:54.826Z,0.30
2019-01-27T03:14:47.645Z,0.33
2019-01-27T03:19:40.488Z,0.30
2019-01-27T03:24:33.367Z,0.40
2019-01-27T03:29:26.196Z,0.30
2019-01-27T03:34:19.981Z,0.30
2019-01-27T03:39:12.932Z,0.40
2019-01-27T03:44:06.818Z,0.30
2019-01-27T03:48:59.676Z,0.30
2019-01-27T03:53:52.504Z,0.20
2019-01-27T03:58:45.333Z,0.30
2019-01-27T04:03:38.167Z,0.27
2019-01-27T04:08:30.998Z,0.20
2019-01-27T04:13:23.853Z,0.40
2019-01-27T04:18:16.678Z,0.40
2019-01-27T04:23:09.529Z,0.30
2019-01-27T04:28:02.382Z,0.30
2019-01-27T04:32:55.210Z,0.30
2019-01-27T04:37:48.050Z,0.20
2019-01-27T04:42:40.869Z,0.30
2019-01-27T04:47:33.729Z,0.30
2019-01-27T04:52:26.552Z,0.20
2019-01-27T04:57:19.383Z,0.20
2019-01-27T05:02:12.214Z,0.20
2019-01-27T05:07:05.042Z,0.20
2019-01-27T05:11:57.842Z,0.30
2019-01-27T05:16:50.680Z,0.20
2019-01-27T05:21:43.533Z,0.30
2019-01-27T05:26:36.380Z,0.30
2019-01-27T05:31:29.224Z,0.30
2019-01-27T05:36:22.056Z,0.30
2019-01-27T05:41:14.917Z,0.27
2019-01-27T05:46:07.757Z,0.30
2019-01-27T05:51:00.614Z,0.30
2019-01-27T05:55:53.438Z,0.43
2019-01-27T06:00:47.005Z,0.30
2019-01-27T06:05:39.829Z,0.20
2019-01-27T06:10:32.695Z,0.40
2019-01-27T06:15:25.604Z,0.40
2019-01-27T06:20:18.497Z,0.40
2019-01-27T06:25:14.244Z,0.60
2019-01-27T06:30:12.772Z,0.50
2019-01-27T06:35:05.885Z,0.60
2019-01-27T06:39:58.692Z,0.40
2019-01-27T06:44:51.529Z,0.50
2019-01-27T06:49:44.378Z,0.50
2019-01-27T06:54:37.228Z,0.43
2019-01-27T06:59:34.512Z,0.30
2019-01-27T07:04:31.668Z,0.40
2019-01-27T07:09:49.871Z,0.40
2019-01-27T07:15:00.529Z,0.50
2019-01-27T07:20:12.960Z,0.40
2019-01-27T07:25:29.165Z,0.53
2019-01-27T07:30:56.840Z,0.40
2019-01-27T07:36:00.141Z,0.50
2019-01-27T07:40:58.751Z,0.80
2019-01-27T07:46:12.213Z,1.40
2019-01-27T07:51:39.463Z,1.10
2019-01-27T07:56:49.541Z,0.90
2019-01-27T08:01:58.476Z,0.77
2019-01-27T08:07:13.505Z,0.90
2019-01-27T08:12:13.792Z,1.13
2019-01-27T08:17:44.656Z,0.80
2019-01-27T08:22:59.892Z,0.70
2019-01-27T08:28:10.480Z,0.50
2019-01-27T08:33:22.945Z,1.03
2019-01-27T08:38:38.105Z,0.97
2019-01-27T08:43:56.549Z,0.77
2019-01-27T08:48:49.427Z,0.63
2019-01-27T08:53:42.313Z,0.60
2019-01-27T08:58:35.112Z,1.00
2019-01-27T09:04:05.941Z,0.93
2019-01-27T09:09:13.427Z,0.83
2019-01-27T09:14:25.780Z,0.70
2019-01-27T09:19:41.257Z,0.90
2019-01-27T09:24:55.152Z,1.00
2019-01-27T09:30:11.956Z,0.80
2019-01-27T09:35:17.624Z,0.70
2019-01-27T09:40:34.285Z,0.70
2019-01-27T09:45:57.801Z,0.70
2019-01-27T09:50:44.735Z,0.60
2019-01-27T09:55:47.968Z,0.97
2019-01-27T10:00:52.226Z,0.63
2019-01-27T10:06:03.280Z,0.80
2019-01-27T10:11:26.643Z,0.80
2019-01-27T10:16:39.254Z,0.60
2019-01-27T10:21:39.416Z,0.70
2019-01-27T10:26:40.166Z,0.70
2019-01-27T10:31:40.120Z,0.60
2019-01-27T10:37:11.800Z,1.00
2019-01-27T10:42:06.159Z,1.40
2019-01-27T10:47:19.014Z,1.17
2019-01-27T10:52:21.614Z,1.00
2019-01-27T10:57:19.899Z,1.33
2019-01-27T11:02:41.619Z,1.10
2019-01-27T11:08:09.230Z,1.07
2019-01-27T11:13:18.277Z,0.80
2019-01-27T11:18:36.900Z,1.23
2019-01-27T11:23:48.010Z,1.10
2019-01-27T11:28:56.322Z,0.73
2019-01-27T11:34:08.733Z,0.90
2019-01-27T11:39:33.373Z,0.87
2019-01-27T11:44:44.498Z,0.80
2019-01-27T11:49:59.957Z,0.70
2019-01-27T11:54:52.821Z,0.90
2019-01-27T11:59:53.191Z,0.60
2019-01-27T12:04:46.088Z,0.80
2019-01-27T12:09:39.039Z,0.40
2019-01-27T12:14:31.885Z,0.50
2019-01-27T12:19:24.771Z,0.47
2019-01-27T12:24:19.421Z,0.47
2019-01-27T12:29:12.380Z,0.50
2019-01-27T12:34:05.268Z,0.40
2019-01-27T12:38:58.089Z,0.60
2019-01-27T12:43:50.978Z,0.53
2019-01-27T12:48:43.808Z,0.30
2019-01-27T12:53:36.663Z,0.43
2019-01-27T12:58:29.481Z,0.40
2019-01-27T13:03:22.501Z,0.50
2019-01-27T13:08:17.158Z,0.53
2019-01-27T13:13:12.136Z,0.90
2019-01-27T13:18:04.769Z,0.60
2019-01-27T13:22:57.612Z,0.60
2019-01-27T13:27:50.618Z,0.70
2019-01-27T13:32:43.490Z,0.70
2019-01-27T13:37:36.373Z,0.60
2019-01-27T13:42:29.222Z,0.90
2019-01-27T13:47:22.148Z,0.63
2019-01-27T13:52:14.982Z,0.70
2019-01-27T13:57:07.832Z,0.50
2019-01-27T14:02:00.679Z,0.60
2019-01-27T14:06:53.569Z,0.60
2019-01-27T14:11:46.400Z,0.60
2019-01-27T14:16:39.379Z,0.80
2019-01-27T14:21:33.007Z,0.60
2019-01-27T14:26:25.816Z,1.27
2019-01-27T14:31:18.648Z,0.67
2019-01-27T14:36:11.495Z,0.90
2019-01-27T14:41:06.329Z,0.90
2019-01-27T14:45:59.407Z,1.03
2019-01-27T14:50:52.248Z,1.10
2019-01-27T14:55:45.082Z,1.00
2019-01-27T15:00:40.593Z,0.90
2019-01-27T15:05:33.401Z,1.50
2019-01-27T15:10:26.759Z,1.10
2019-01-27T15:15:20.065Z,1.23
2019-01-27T15:20:20.574Z,1.43
2019-01-27T15:25:13.396Z,1.20
2019-01-27T15:30:13.319Z,1.47
2019-01-27T15:35:08.267Z,1.40
2019-01-27T15:40:01.126Z,1.40
2019-01-27T15:44:54.036Z,1.60
2019-01-27T15:49:46.876Z,1.13
2019-01-27T15:54:39.711Z,1.23
2019-01-27T15:59:32.537Z,1.23
2019-01-27T16:04:25.404Z,1.60
2019-01-27T16:09:18.253Z,1.50
2019-01-27T16:14:11.106Z,1.70
2019-01-27T16:19:04.892Z,1.20
2019-01-27T16:24:00.475Z,1.67
2019-01-27T16:28:53.322Z,1.33
2019-01-27T16:34:02.980Z,1.43
2019-01-27T16:38:55.809Z,1.87
2019-01-27T16:43:50.556Z,1.37
2019-01-27T16:48:43.419Z,1.37
2019-01-27T16:53:36.224Z,1.60
2019-01-27T16:58:29.068Z,1.60
2019-01-27T17:03:21.928Z,2.03
2019-01-27T17:08:14.756Z,2.13
2019-01-27T17:13:07.628Z,2.50
2019-01-27T17:18:00.473Z,2.37
2019-01-27T17:22:53.305Z,3.30
2019-01-27T17:27:46.357Z,3.50
2019-01-27T17:32:39.200Z,4.00
2019-01-27T17:37:32.068Z,3.27
2019-01-27T17:42:26.703Z,3.57
2019-01-27T17:47:19.613Z,3.63
2019-01-27T17:52:12.477Z,3.33
2019-01-27T17:57:16.396Z,3.07
2019-01-27T18:02:44.150Z,3.40
2019-01-27T18:07:44.448Z,3.27
2019-01-27T18:12:41.583Z,3.10
2019-01-27T18:17:34.438Z,3.30
2019-01-27T18:22:27.277Z,2.73
2019-01-27T18:27:20.153Z,3.50
2019-01-27T18:32:13.018Z,2.87
2019-01-27T18:37:06.059Z,3.03
2019-01-27T18:41:58.901Z,2.27
2019-01-27T18:46:51.757Z,2.33
2019-01-27T18:51:44.590Z,3.13
2019-01-27T18:56:59.930Z,3.30
2019-01-27T19:02:05.067Z,4.33
2019-01-27T19:07:16.161Z,3.33
2019-01-27T19:12:21.118Z,3.27
2019-01-27T19:17:33.549Z,3.97
2019-01-27T19:22:45.989Z,3.83
2019-01-27T19:28:01.493Z,4.53
2019-01-27T19:33:04.263Z,3.73
2019-01-27T19:38:19.320Z,3.80
2019-01-27T19:43:30.449Z,4.07
2019-01-27T19:48:33.340Z,3.73
2019-01-27T19:53:54.776Z,3.63
2019-01-27T19:58:55.134Z,3.57
2019-01-27T20:04:07.593Z,4.20
2019-01-27T20:09:32.451Z,3.60
2019-01-27T20:14:44.052Z,4.37
2019-01-27T20:19:47.990Z,4.13
2019-01-27T20:24:58.992Z,3.67
2019-01-27T20:30:29.861Z,3.97
2019-01-27T20:35:30.072Z,4.10
2019-01-27T20:40:42.599Z,3.97
2019-01-27T20:45:41.421Z,4.57
2019-01-27T20:50:39.909Z,3.30
2019-01-27T20:55:52.383Z,3.23
2019-01-27T21:01:13.523Z,3.37
2019-01-27T21:06:21.387Z,3.13
2019-01-27T21:11:42.615Z,3.47
2019-01-27T21:16:45.492Z,4.03
2019-01-27T21:21:38.349Z,3.97
2019-01-27T21:26:31.188Z,3.80
2019-01-27T21:31:23.999Z,3.97
2019-01-27T21:36:17.153Z,4.17
2019-01-27T21:41:10.024Z,4.00
2019-01-27T21:46:02.841Z,4.00
2019-01-27T21:50:55.778Z,4.77
2019-01-27T21:55:48.712Z,4.60
2019-01-27T22:00:41.558Z,5.17
2019-01-27T22:05:34.480Z,4.83
2019-01-27T22:10:27.407Z,4.47
2019-01-27T22:15:20.259Z,5.17
2019-01-27T22:20:14.833Z,4.50
2019-01-27T22:25:09.342Z,4.53
2019-01-27T22:30:02.179Z,4.10
2019-01-27T22:34:55.019Z,3.60
2019-01-27T22:39:47.885Z,4.10
2019-01-27T22:44:40.795Z,4.20
2019-01-27T22:49:33.627Z,4.00
2019-01-27T22:54:26.480Z,3.23
2019-01-27T22:59:19.353Z,3.50
2019-01-27T23:04:12.260Z,3.07
2019-01-27T23:09:12.542Z,3.23
2019-01-27T23:14:09.736Z,3.67
2019-01-27T23:19:02.631Z,3.40
2019-01-27T23:23:55.503Z,3.73
2019-01-27T23:28:48.328Z,3.80
2019-01-27T23:33:41.193Z,3.90
2019-01-27T23:38:34.032Z,4.37
2019-01-27T23:43:27.039Z,4.40
2019-01-27T23:48:19.964Z,3.83
2019-01-27T23:53:12.807Z,3.47
2019-01-27T23:58:05.649Z,3.47
